Portada
METAR-TAF:

METAR-TAF

Aeroports :

Kansas City, Missouri, Estats Units d'Amèrica

latitud: 39-17-50N, longitud: 094-43-50W, altitud: 312 m

Observació

L'informe es va fer fa 25 minuts, a les 01:53 UTC
Vent 8 kt del Sud-Est
Temperatura 4°C
Humitat 65%
Pressió 1026 hPa
Visibilitat: 16.1 km
Cel clar

METAR: KMCI 160153Z 14008KT 10SM CLR 04/M02 A3029 RMK AO2 SLP264 T00391022

Hora: 20:18 (02:18 UTC)

Pronòstic

L'informe es va fer fa 2 hores i 56 minuts, a les 23:22 UTC
Pronòstic vàlid del 16 a les 00 UTC al 16 a les 24 UTC
Vent 5 kt del Sud
Visibilitat: 10 km
Escasses núvols a una alçada de 25000 ft
A partir de les 16 a les 1400 UTC
Vent 12 kt del Sud/Sud-Est
Visibilitat: 10 km
Núvols disperses a una alçada de 20000 ft
A partir de les 16 a les 1800 UTC
Vent 13 kt del Sud/Sud-Est amb ràfegues de 18 kt
Visibilitat: 10 km
Núvols disperses a una alçada de 20000 ft

TAF: KMCI 152322Z 1600/1624 17005KT P6SM FEW250 FM161400 15012KT P6SM SCT200 FM161800 16013G18KT P6SM SCT200

Observacions i pronòstics meteorològics de més de 4000 aeroports (METAR i TAF).

Les estacions disponibles són els punts grocs i vermells al mapa.

Posi el ratolí al punt desitjat per veure el nom de l'estació.

Feu clic per veure les observacions i els pronòstics meteorològics.

Per canviar el mapa: feu clic els botons verds amb una creu de color negre per apropar; al botó verd amb un guió per allunyar la imatge; o en les fletxes verdes per a mapes adjacents.


METAR-TAF: